Main page
METAR-TAF:

METAR-TAF

Airports :

Brooks Field

Marshall, Michigan, United States

latitude: 42-15-04N, longitude: 084-57-20W, elevation: 941 ft

Current weather observation

The report was made 12 minutes ago, at 18:35 UTC
Wind 10 mph from the West/Northwest with gusts up to 18 mph
Temperature 75°F
Humidity 69%
Pressure 29.74 in. Hg
Visibility: 10 miles
Broken clouds at a height of 2700 ft
Broken clouds at a height of 3500 ft
Broken clouds at a height of 4500 ft

METAR: KRMY 231835Z AUTO 30009G16KT 10SM BKN027 BKN035 BKN045 24/18 A2974 RMK AO2 T02350175

Time: 14:47 (18:47 UTC)


TAF: missing

Weather observations and forecasts of more than 4000 airports (METAR and TAF reports).

The available stations are represented by yellow and red dots on the map.

Hover mouse over dot to see the name of the station.

Then click to see weather observations and forecasts.

To change the map : click on the green buttons with a black cross to zoom in, on the green button with a dash to zoom out, or on the green arrows for adjacent maps.


METAR-TAF: